sensor_id;sensor_type;location;lat;lon;timestamp;P1;durP1;ratioP1;P2;durP2;ratioP2
79025;SDS011;68425;44.716;37.756;2023-04-03T00:00:08;1.88;;;1.13;;
79025;SDS011;68425;44.716;37.756;2023-04-03T00:01:10;2.00;;;1.08;;
79025;SDS011;68425;44.716;37.756;2023-04-03T00:02:12;1.98;;;1.10;;
79025;SDS011;68425;44.716;37.756;2023-04-03T00:03:13;2.00;;;0.90;;
79025;SDS011;68425;44.716;37.756;2023-04-03T00:04:15;2.13;;;0.98;;
79025;SDS011;68425;44.716;37.756;2023-04-03T00:05:16;3.22;;;1.08;;
79025;SDS011;68425;44.716;37.756;2023-04-03T00:06:18;1.88;;;0.95;;
79025;SDS011;68425;44.716;37.756;2023-04-03T00:07:19;1.95;;;1.00;;
79025;SDS011;68425;44.716;37.756;2023-04-03T00:08:20;2.38;;;1.10;;
79025;SDS011;68425;44.716;37.756;2023-04-03T00:09:22;2.35;;;0.98;;
79025;SDS011;68425;44.716;37.756;2023-04-03T00:10:23;3.25;;;1.20;;
79025;SDS011;68425;44.716;37.756;2023-04-03T00:11:25;2.58;;;1.02;;
79025;SDS011;68425;44.716;37.756;2023-04-03T00:12:26;2.17;;;0.93;;
79025;SDS011;68425;44.716;37.756;2023-04-03T00:13:28;2.08;;;1.10;;
79025;SDS011;68425;44.716;37.756;2023-04-03T00:14:29;2.55;;;1.00;;
79025;SDS011;68425;44.716;37.756;2023-04-03T00:15:31;2.28;;;0.90;;
79025;SDS011;68425;44.716;37.756;2023-04-03T00:16:32;2.92;;;1.13;;
79025;SDS011;68425;44.716;37.756;2023-04-03T00:17:34;2.08;;;1.10;;
79025;SDS011;68425;44.716;37.756;2023-04-03T00:18:36;2.97;;;1.25;;
79025;SDS011;68425;44.716;37.756;2023-04-03T00:19:38;2.55;;;1.10;;
79025;SDS011;68425;44.716;37.756;2023-04-03T00:20:39;2.15;;;1.25;;
79025;SDS011;68425;44.716;37.756;2023-04-03T00:21:41;2.83;;;1.23;;
79025;SDS011;68425;44.716;37.756;2023-04-03T00:22:42;2.58;;;1.25;;
79025;SDS011;68425;44.716;37.756;2023-04-03T00:23:43;3.00;;;1.10;;
79025;SDS011;68425;44.716;37.756;2023-04-03T00:24:45;1.67;;;1.00;;
79025;SDS011;68425;44.716;37.756;2023-04-03T00:25:46;2.28;;;1.25;;
79025;SDS011;68425;44.716;37.756;2023-04-03T00:26:47;2.28;;;1.10;;
79025;SDS011;68425;44.716;37.756;2023-04-03T00:27:49;2.60;;;1.02;;
79025;SDS011;68425;44.716;37.756;2023-04-03T00:28:51;2.45;;;1.08;;
79025;SDS011;68425;44.716;37.756;2023-04-03T00:29:53;2.33;;;1.02;;
79025;SDS011;68425;44.716;37.756;2023-04-03T00:30:54;1.67;;;0.93;;
79025;SDS011;68425;44.716;37.756;2023-04-03T00:31:56;1.67;;;0.90;;
79025;SDS011;68425;44.716;37.756;2023-04-03T00:32:57;1.77;;;1.00;;
79025;SDS011;68425;44.716;37.756;2023-04-03T00:33:59;2.28;;;1.27;;
79025;SDS011;68425;44.716;37.756;2023-04-03T00:35:00;1.67;;;1.02;;
79025;SDS011;68425;44.716;37.756;2023-04-03T00:36:08;2.05;;;1.02;;
79025;SDS011;68425;44.716;37.756;2023-04-03T00:37:11;2.60;;;1.20;;
79025;SDS011;68425;44.716;37.756;2023-04-03T00:38:12;2.20;;;1.00;;
79025;SDS011;68425;44.716;37.756;2023-04-03T00:39:13;2.05;;;1.00;;
79025;SDS011;68425;44.716;37.756;2023-04-03T00:40:15;2.55;;;1.00;;
79025;SDS011;68425;44.716;37.756;2023-04-03T00:41:16;2.30;;;1.00;;
79025;SDS011;68425;44.716;37.756;2023-04-03T00:42:19;3.13;;;1.30;;
79025;SDS011;68425;44.716;37.756;2023-04-03T00:43:22;1.60;;;0.90;;
79025;SDS011;68425;44.716;37.756;2023-04-03T00:45:37;1.95;;;1.10;;
79025;SDS011;68425;44.716;37.756;2023-04-03T00:46:41;2.53;;;1.10;;
79025;SDS011;68425;44.716;37.756;2023-04-03T00:47:42;2.47;;;1.17;;
79025;SDS011;68425;44.716;37.756;2023-04-03T00:48:45;2.10;;;1.08;;
79025;SDS011;68425;44.716;37.756;2023-04-03T00:50:49;2.97;;;1.27;;
79025;SDS011;68425;44.716;37.756;2023-04-03T00:51:53;2.55;;;1.30;;
79025;SDS011;68425;44.716;37.756;2023-04-03T00:52:55;2.05;;;1.02;;
79025;SDS011;68425;44.716;37.756;2023-04-03T00:53:59;1.80;;;1.10;;
79025;SDS011;68425;44.716;37.756;2023-04-03T00:55:04;1.85;;;1.00;;
79025;SDS011;68425;44.716;37.756;2023-04-03T00:56:10;2.30;;;1.10;;
79025;SDS011;68425;44.716;37.756;2023-04-03T00:57:14;3.00;;;1.30;;
79025;SDS011;68425;44.716;37.756;2023-04-03T00:58:17;2.25;;;1.17;;
79025;SDS011;68425;44.716;37.756;2023-04-03T00:59:23;2.00;;;1.08;;
79025;SDS011;68425;44.716;37.756;2023-04-03T01:00:28;1.92;;;0.90;;
79025;SDS011;68425;44.716;37.756;2023-04-03T01:01:30;2.15;;;1.10;;
79025;SDS011;68425;44.716;37.756;2023-04-03T01:02:32;2.65;;;1.20;;
79025;SDS011;68425;44.716;37.756;2023-04-03T01:03:34;2.55;;;1.20;;
79025;SDS011;68425;44.716;37.756;2023-04-03T01:04:39;1.98;;;1.13;;
79025;SDS011;68425;44.716;37.756;2023-04-03T01:05:43;2.03;;;1.00;;
79025;SDS011;68425;44.716;37.756;2023-04-03T01:06:45;2.20;;;1.10;;
79025;SDS011;68425;44.716;37.756;2023-04-03T01:07:46;1.95;;;1.10;;
79025;SDS011;68425;44.716;37.756;2023-04-03T01:09:52;2.03;;;0.90;;
79025;SDS011;68425;44.716;37.756;2023-04-03T01:10:58;1.45;;;0.90;;
79025;SDS011;68425;44.716;37.756;2023-04-03T01:12:17;1.90;;;1.02;;
79025;SDS011;68425;44.716;37.756;2023-04-03T01:13:23;2.92;;;1.20;;
79025;SDS011;68425;44.716;37.756;2023-04-03T01:14:31;2.17;;;1.10;;
79025;SDS011;68425;44.716;37.756;2023-04-03T01:15:32;1.73;;;0.90;;
79025;SDS011;68425;44.716;37.756;2023-04-03T01:16:35;1.98;;;1.00;;
79025;SDS011;68425;44.716;37.756;2023-04-03T01:17:38;1.65;;;0.98;;
79025;SDS011;68425;44.716;37.756;2023-04-03T01:18:40;2.75;;;1.05;;
79025;SDS011;68425;44.716;37.756;2023-04-03T01:19:43;1.50;;;0.90;;
79025;SDS011;68425;44.716;37.756;2023-04-03T01:22:22;2.42;;;1.10;;
79025;SDS011;68425;44.716;37.756;2023-04-03T01:25:19;2.08;;;1.10;;
79025;SDS011;68425;44.716;37.756;2023-04-03T01:26:21;2.55;;;1.30;;
79025;SDS011;68425;44.716;37.756;2023-04-03T01:27:23;2.22;;;1.17;;
79025;SDS011;68425;44.716;37.756;2023-04-03T01:28:29;2.10;;;1.10;;
79025;SDS011;68425;44.716;37.756;2023-04-03T01:29:33;2.10;;;1.02;;
79025;SDS011;68425;44.716;37.756;2023-04-03T01:32:08;2.08;;;1.10;;
79025;SDS011;68425;44.716;37.756;2023-04-03T01:33:10;2.72;;;1.30;;
79025;SDS011;68425;44.716;37.756;2023-04-03T01:34:12;2.28;;;1.08;;
79025;SDS011;68425;44.716;37.756;2023-04-03T01:35:13;1.65;;;1.00;;
79025;SDS011;68425;44.716;37.756;2023-04-03T01:36:18;3.10;;;1.38;;
79025;SDS011;68425;44.716;37.756;2023-04-03T01:38:26;4.00;;;1.33;;
79025;SDS011;68425;44.716;37.756;2023-04-03T01:39:31;3.15;;;1.50;;
79025;SDS011;68425;44.716;37.756;2023-04-03T01:40:32;2.13;;;1.23;;
79025;SDS011;68425;44.716;37.756;2023-04-03T01:41:34;2.38;;;1.35;;
79025;SDS011;68425;44.716;37.756;2023-04-03T01:42:44;2.40;;;1.15;;
79025;SDS011;68425;44.716;37.756;2023-04-03T01:43:47;2.47;;;1.20;;
79025;SDS011;68425;44.716;37.756;2023-04-03T01:44:49;3.00;;;1.30;;
79025;SDS011;68425;44.716;37.756;2023-04-03T01:45:51;2.40;;;1.02;;
79025;SDS011;68425;44.716;37.756;2023-04-03T01:46:55;2.75;;;1.25;;
79025;SDS011;68425;44.716;37.756;2023-04-03T01:47:58;2.25;;;1.20;;
79025;SDS011;68425;44.716;37.756;2023-04-03T01:49:00;2.80;;;1.30;;
79025;SDS011;68425;44.716;37.756;2023-04-03T01:50:03;2.08;;;1.15;;
79025;SDS011;68425;44.716;37.756;2023-04-03T01:51:07;3.30;;;1.25;;
79025;SDS011;68425;44.716;37.756;2023-04-03T01:52:08;2.60;;;1.30;;
79025;SDS011;68425;44.716;37.756;2023-04-03T01:53:10;2.60;;;1.20;;
79025;SDS011;68425;44.716;37.756;2023-04-03T01:54:12;3.03;;;1.30;;
79025;SDS011;68425;44.716;37.756;2023-04-03T01:55:13;3.35;;;1.30;;
79025;SDS011;68425;44.716;37.756;2023-04-03T01:56:16;2.38;;;1.20;;
79025;SDS011;68425;44.716;37.756;2023-04-03T01:57:17;2.35;;;1.40;;
79025;SDS011;68425;44.716;37.756;2023-04-03T01:58:19;2.67;;;1.40;;
79025;SDS011;68425;44.716;37.756;2023-04-03T01:59:22;2.72;;;1.30;;
79025;SDS011;68425;44.716;37.756;2023-04-03T02:00:23;2.65;;;1.23;;
79025;SDS011;68425;44.716;37.756;2023-04-03T02:01:25;3.08;;;1.23;;
79025;SDS011;68425;44.716;37.756;2023-04-03T02:02:27;2.25;;;1.20;;
79025;SDS011;68425;44.716;37.756;2023-04-03T02:03:29;2.63;;;1.23;;
79025;SDS011;68425;44.716;37.756;2023-04-03T02:04:30;3.00;;;1.45;;
79025;SDS011;68425;44.716;37.756;2023-04-03T02:05:32;3.08;;;1.50;;
79025;SDS011;68425;44.716;37.756;2023-04-03T02:06:34;3.42;;;1.80;;
79025;SDS011;68425;44.716;37.756;2023-04-03T02:07:35;2.53;;;1.35;;
79025;SDS011;68425;44.716;37.756;2023-04-03T02:08:37;2.28;;;1.15;;
79025;SDS011;68425;44.716;37.756;2023-04-03T02:09:40;3.42;;;1.45;;
79025;SDS011;68425;44.716;37.756;2023-04-03T02:10:43;3.17;;;1.38;;
79025;SDS011;68425;44.716;37.756;2023-04-03T02:11:48;2.38;;;1.27;;
79025;SDS011;68425;44.716;37.756;2023-04-03T02:12:50;2.40;;;1.30;;
79025;SDS011;68425;44.716;37.756;2023-04-03T02:13:51;2.28;;;1.10;;
79025;SDS011;68425;44.716;37.756;2023-04-03T02:14:53;3.35;;;1.25;;
79025;SDS011;68425;44.716;37.756;2023-04-03T02:15:55;2.97;;;1.30;;
79025;SDS011;68425;44.716;37.756;2023-04-03T02:16:56;2.70;;;1.20;;
79025;SDS011;68425;44.716;37.756;2023-04-03T02:17:58;3.15;;;1.40;;
79025;SDS011;68425;44.716;37.756;2023-04-03T02:19:01;2.85;;;1.23;;
79025;SDS011;68425;44.716;37.756;2023-04-03T02:20:04;3.55;;;1.60;;
79025;SDS011;68425;44.716;37.756;2023-04-03T02:22:09;2.38;;;1.25;;
79025;SDS011;68425;44.716;37.756;2023-04-03T02:23:10;2.75;;;1.42;;
79025;SDS011;68425;44.716;37.756;2023-04-03T02:24:12;3.03;;;1.20;;
79025;SDS011;68425;44.716;37.756;2023-04-03T02:25:14;2.92;;;1.15;;
79025;SDS011;68425;44.716;37.756;2023-04-03T02:26:16;3.35;;;1.45;;
79025;SDS011;68425;44.716;37.756;2023-04-03T02:27:20;2.30;;;1.27;;
79025;SDS011;68425;44.716;37.756;2023-04-03T02:28:23;2.63;;;1.20;;
79025;SDS011;68425;44.716;37.756;2023-04-03T02:29:24;2.45;;;1.15;;
79025;SDS011;68425;44.716;37.756;2023-04-03T02:30:28;3.22;;;1.35;;
79025;SDS011;68425;44.716;37.756;2023-04-03T02:31:32;3.05;;;1.58;;
79025;SDS011;68425;44.716;37.756;2023-04-03T02:32:36;4.28;;;1.27;;
79025;SDS011;68425;44.716;37.756;2023-04-03T02:33:38;2.50;;;1.40;;
79025;SDS011;68425;44.716;37.756;2023-04-03T02:34:42;3.75;;;1.38;;
79025;SDS011;68425;44.716;37.756;2023-04-03T02:35:45;3.40;;;1.40;;
79025;SDS011;68425;44.716;37.756;2023-04-03T02:36:55;3.13;;;1.13;;
79025;SDS011;68425;44.716;37.756;2023-04-03T02:37:56;3.30;;;1.30;;
79025;SDS011;68425;44.716;37.756;2023-04-03T02:38:58;3.28;;;1.52;;
79025;SDS011;68425;44.716;37.756;2023-04-03T02:40:00;4.30;;;1.63;;
79025;SDS011;68425;44.716;37.756;2023-04-03T02:41:03;3.15;;;1.48;;
79025;SDS011;68425;44.716;37.756;2023-04-03T02:42:06;3.28;;;1.50;;
79025;SDS011;68425;44.716;37.756;2023-04-03T02:43:08;3.15;;;1.45;;
79025;SDS011;68425;44.716;37.756;2023-04-03T02:44:12;3.10;;;1.52;;
79025;SDS011;68425;44.716;37.756;2023-04-03T02:45:13;2.63;;;1.30;;
79025;SDS011;68425;44.716;37.756;2023-04-03T02:46:16;2.63;;;1.30;;
79025;SDS011;68425;44.716;37.756;2023-04-03T02:47:18;3.95;;;1.67;;
79025;SDS011;68425;44.716;37.756;2023-04-03T02:48:19;3.45;;;1.48;;
79025;SDS011;68425;44.716;37.756;2023-04-03T02:49:21;3.38;;;1.35;;
79025;SDS011;68425;44.716;37.756;2023-04-03T02:50:22;2.92;;;1.45;;
79025;SDS011;68425;44.716;37.756;2023-04-03T02:51:24;3.40;;;1.50;;
79025;SDS011;68425;44.716;37.756;2023-04-03T02:52:27;3.63;;;1.50;;
79025;SDS011;68425;44.716;37.756;2023-04-03T02:53:31;3.53;;;1.52;;
79025;SDS011;68425;44.716;37.756;2023-04-03T02:54:36;3.40;;;1.58;;
79025;SDS011;68425;44.716;37.756;2023-04-03T02:55:40;2.88;;;1.23;;
79025;SDS011;68425;44.716;37.756;2023-04-03T02:56:42;3.38;;;1.50;;
79025;SDS011;68425;44.716;37.756;2023-04-03T02:57:43;4.53;;;1.60;;
79025;SDS011;68425;44.716;37.756;2023-04-03T02:58:45;4.15;;;1.50;;
79025;SDS011;68425;44.716;37.756;2023-04-03T02:59:46;3.33;;;1.48;;
79025;SDS011;68425;44.716;37.756;2023-04-03T03:00:48;3.70;;;1.70;;
79025;SDS011;68425;44.716;37.756;2023-04-03T03:01:49;3.72;;;1.35;;
79025;SDS011;68425;44.716;37.756;2023-04-03T03:02:50;3.20;;;1.50;;
79025;SDS011;68425;44.716;37.756;2023-04-03T03:03:52;3.00;;;1.38;;
79025;SDS011;68425;44.716;37.756;2023-04-03T03:04:53;3.80;;;1.50;;
79025;SDS011;68425;44.716;37.756;2023-04-03T03:06:14;3.55;;;1.40;;
79025;SDS011;68425;44.716;37.756;2023-04-03T03:07:17;3.25;;;1.40;;
79025;SDS011;68425;44.716;37.756;2023-04-03T03:08:18;3.63;;;1.83;;
79025;SDS011;68425;44.716;37.756;2023-04-03T03:09:21;3.15;;;1.50;;
79025;SDS011;68425;44.716;37.756;2023-04-03T03:10:22;3.20;;;1.33;;
79025;SDS011;68425;44.716;37.756;2023-04-03T03:11:24;3.22;;;1.30;;
79025;SDS011;68425;44.716;37.756;2023-04-03T03:12:27;3.72;;;1.58;;
79025;SDS011;68425;44.716;37.756;2023-04-03T03:13:30;2.95;;;1.30;;
79025;SDS011;68425;44.716;37.756;2023-04-03T03:14:32;3.65;;;1.50;;
79025;SDS011;68425;44.716;37.756;2023-04-03T03:15:34;2.80;;;1.40;;
79025;SDS011;68425;44.716;37.756;2023-04-03T03:16:36;3.33;;;1.40;;
79025;SDS011;68425;44.716;37.756;2023-04-03T03:17:38;3.00;;;1.50;;
79025;SDS011;68425;44.716;37.756;2023-04-03T03:18:39;4.13;;;1.70;;
79025;SDS011;68425;44.716;37.756;2023-04-03T03:19:40;3.83;;;1.50;;
79025;SDS011;68425;44.716;37.756;2023-04-03T03:20:42;3.17;;;1.50;;
79025;SDS011;68425;44.716;37.756;2023-04-03T03:21:43;3.50;;;1.48;;
79025;SDS011;68425;44.716;37.756;2023-04-03T03:22:45;3.60;;;1.63;;
79025;SDS011;68425;44.716;37.756;2023-04-03T03:23:46;3.28;;;1.48;;
79025;SDS011;68425;44.716;37.756;2023-04-03T03:24:48;3.67;;;1.48;;
79025;SDS011;68425;44.716;37.756;2023-04-03T03:25:53;3.40;;;1.50;;
79025;SDS011;68425;44.716;37.756;2023-04-03T03:26:58;2.63;;;1.30;;
79025;SDS011;68425;44.716;37.756;2023-04-03T03:27:59;4.80;;;1.63;;
79025;SDS011;68425;44.716;37.756;2023-04-03T03:29:01;3.22;;;1.50;;
79025;SDS011;68425;44.716;37.756;2023-04-03T03:30:04;3.30;;;1.60;;
79025;SDS011;68425;44.716;37.756;2023-04-03T03:31:06;4.20;;;1.60;;
79025;SDS011;68425;44.716;37.756;2023-04-03T03:32:11;3.25;;;1.48;;
79025;SDS011;68425;44.716;37.756;2023-04-03T03:33:13;3.90;;;1.50;;
79025;SDS011;68425;44.716;37.756;2023-04-03T03:34:14;3.80;;;1.73;;
79025;SDS011;68425;44.716;37.756;2023-04-03T03:35:16;2.90;;;1.60;;
79025;SDS011;68425;44.716;37.756;2023-04-03T03:36:17;4.35;;;1.80;;
79025;SDS011;68425;44.716;37.756;2023-04-03T03:37:19;3.58;;;1.48;;
79025;SDS011;68425;44.716;37.756;2023-04-03T03:38:21;3.47;;;1.58;;
79025;SDS011;68425;44.716;37.756;2023-04-03T03:39:23;3.33;;;1.50;;
79025;SDS011;68425;44.716;37.756;2023-04-03T03:40:24;4.10;;;1.60;;
79025;SDS011;68425;44.716;37.756;2023-04-03T03:41:26;2.53;;;1.38;;
79025;SDS011;68425;44.716;37.756;2023-04-03T03:42:27;4.18;;;1.50;;
79025;SDS011;68425;44.716;37.756;2023-04-03T03:43:29;2.88;;;1.40;;
79025;SDS011;68425;44.716;37.756;2023-04-03T03:44:30;4.45;;;1.90;;
79025;SDS011;68425;44.716;37.756;2023-04-03T03:45:32;3.10;;;1.58;;
79025;SDS011;68425;44.716;37.756;2023-04-03T03:46:34;4.07;;;2.00;;
79025;SDS011;68425;44.716;37.756;2023-04-03T03:47:35;4.80;;;1.90;;
79025;SDS011;68425;44.716;37.756;2023-04-03T03:48:37;2.90;;;1.58;;
79025;SDS011;68425;44.716;37.756;2023-04-03T03:49:38;4.32;;;1.73;;
79025;SDS011;68425;44.716;37.756;2023-04-03T03:50:39;4.13;;;2.03;;
79025;SDS011;68425;44.716;37.756;2023-04-03T03:51:41;3.35;;;1.80;;
79025;SDS011;68425;44.716;37.756;2023-04-03T03:52:42;3.70;;;1.60;;
79025;SDS011;68425;44.716;37.756;2023-04-03T03:53:44;3.22;;;1.65;;
79025;SDS011;68425;44.716;37.756;2023-04-03T03:54:49;3.60;;;1.80;;
79025;SDS011;68425;44.716;37.756;2023-04-03T03:55:51;3.80;;;1.83;;
79025;SDS011;68425;44.716;37.756;2023-04-03T03:57:58;3.78;;;1.50;;
79025;SDS011;68425;44.716;37.756;2023-04-03T03:59:02;4.18;;;1.90;;
79025;SDS011;68425;44.716;37.756;2023-04-03T04:00:05;6.03;;;1.90;;
79025;SDS011;68425;44.716;37.756;2023-04-03T04:01:16;4.45;;;1.73;;
79025;SDS011;68425;44.716;37.756;2023-04-03T04:02:21;4.13;;;1.85;;
79025;SDS011;68425;44.716;37.756;2023-04-03T04:03:22;4.00;;;1.50;;
79025;SDS011;68425;44.716;37.756;2023-04-03T04:04:25;4.18;;;1.75;;
79025;SDS011;68425;44.716;37.756;2023-04-03T04:05:26;3.88;;;1.80;;
79025;SDS011;68425;44.716;37.756;2023-04-03T04:06:28;4.38;;;2.08;;
79025;SDS011;68425;44.716;37.756;2023-04-03T04:07:33;4.75;;;1.65;;
79025;SDS011;68425;44.716;37.756;2023-04-03T04:08:35;4.97;;;2.13;;
79025;SDS011;68425;44.716;37.756;2023-04-03T04:09:38;4.28;;;1.90;;
79025;SDS011;68425;44.716;37.756;2023-04-03T04:10:40;3.58;;;1.98;;
79025;SDS011;68425;44.716;37.756;2023-04-03T04:11:42;3.88;;;1.67;;
79025;SDS011;68425;44.716;37.756;2023-04-03T04:12:46;4.15;;;1.85;;
79025;SDS011;68425;44.716;37.756;2023-04-03T04:13:47;3.40;;;1.67;;
79025;SDS011;68425;44.716;37.756;2023-04-03T04:14:51;4.68;;;1.85;;
79025;SDS011;68425;44.716;37.756;2023-04-03T04:15:52;4.80;;;1.65;;
79025;SDS011;68425;44.716;37.756;2023-04-03T04:16:54;4.85;;;1.95;;
79025;SDS011;68425;44.716;37.756;2023-04-03T04:17:59;4.88;;;2.00;;
79025;SDS011;68425;44.716;37.756;2023-04-03T04:19:00;4.82;;;1.83;;
79025;SDS011;68425;44.716;37.756;2023-04-03T04:20:02;4.50;;;1.88;;
79025;SDS011;68425;44.716;37.756;2023-04-03T04:21:06;3.03;;;1.55;;
79025;SDS011;68425;44.716;37.756;2023-04-03T04:22:07;4.13;;;1.75;;
79025;SDS011;68425;44.716;37.756;2023-04-03T04:23:09;4.38;;;1.90;;
79025;SDS011;68425;44.716;37.756;2023-04-03T04:24:12;4.18;;;2.13;;
79025;SDS011;68425;44.716;37.756;2023-04-03T04:25:13;3.83;;;1.65;;
79025;SDS011;68425;44.716;37.756;2023-04-03T04:26:15;5.93;;;2.00;;
79025;SDS011;68425;44.716;37.756;2023-04-03T04:27:17;3.90;;;1.90;;
79025;SDS011;68425;44.716;37.756;2023-04-03T04:28:18;3.70;;;2.00;;
79025;SDS011;68425;44.716;37.756;2023-04-03T04:29:22;5.68;;;1.80;;
79025;SDS011;68425;44.716;37.756;2023-04-03T04:30:25;4.97;;;1.80;;
79025;SDS011;68425;44.716;37.756;2023-04-03T04:31:29;4.22;;;1.70;;
79025;SDS011;68425;44.716;37.756;2023-04-03T04:32:31;4.28;;;1.70;;
79025;SDS011;68425;44.716;37.756;2023-04-03T04:33:32;5.15;;;2.22;;
79025;SDS011;68425;44.716;37.756;2023-04-03T04:34:36;4.00;;;1.83;;
79025;SDS011;68425;44.716;37.756;2023-04-03T04:35:38;6.53;;;2.08;;
79025;SDS011;68425;44.716;37.756;2023-04-03T04:36:39;6.20;;;2.65;;
79025;SDS011;68425;44.716;37.756;2023-04-03T04:37:41;3.53;;;1.77;;
79025;SDS011;68425;44.716;37.756;2023-04-03T04:38:43;4.57;;;1.92;;
79025;SDS011;68425;44.716;37.756;2023-04-03T04:39:44;5.65;;;2.30;;
79025;SDS011;68425;44.716;37.756;2023-04-03T04:40:46;4.03;;;1.95;;
79025;SDS011;68425;44.716;37.756;2023-04-03T04:41:48;4.03;;;1.90;;
79025;SDS011;68425;44.716;37.756;2023-04-03T04:42:50;4.65;;;1.95;;
79025;SDS011;68425;44.716;37.756;2023-04-03T04:43:51;4.90;;;2.00;;
79025;SDS011;68425;44.716;37.756;2023-04-03T04:44:53;5.88;;;1.80;;
79025;SDS011;68425;44.716;37.756;2023-04-03T04:46:01;5.15;;;1.90;;
79025;SDS011;68425;44.716;37.756;2023-04-03T04:47:07;6.05;;;1.75;;
79025;SDS011;68425;44.716;37.756;2023-04-03T04:48:08;6.45;;;1.88;;
79025;SDS011;68425;44.716;37.756;2023-04-03T04:49:10;3.45;;;1.60;;
79025;SDS011;68425;44.716;37.756;2023-04-03T04:50:13;2.85;;;1.52;;
79025;SDS011;68425;44.716;37.756;2023-04-03T04:51:14;4.60;;;1.70;;
79025;SDS011;68425;44.716;37.756;2023-04-03T04:52:16;4.70;;;1.55;;
79025;SDS011;68425;44.716;37.756;2023-04-03T04:53:17;3.40;;;1.63;;
79025;SDS011;68425;44.716;37.756;2023-04-03T04:54:19;4.22;;;1.50;;
79025;SDS011;68425;44.716;37.756;2023-04-03T04:55:22;5.32;;;1.80;;
79025;SDS011;68425;44.716;37.756;2023-04-03T04:56:24;4.78;;;1.70;;
79025;SDS011;68425;44.716;37.756;2023-04-03T04:57:28;4.20;;;1.70;;
79025;SDS011;68425;44.716;37.756;2023-04-03T04:58:32;3.95;;;1.80;;
79025;SDS011;68425;44.716;37.756;2023-04-03T04:59:35;4.60;;;1.63;;
79025;SDS011;68425;44.716;37.756;2023-04-03T05:00:37;4.22;;;1.77;;
79025;SDS011;68425;44.716;37.756;2023-04-03T05:01:38;3.45;;;1.60;;
79025;SDS011;68425;44.716;37.756;2023-04-03T05:02:48;3.83;;;1.60;;
79025;SDS011;68425;44.716;37.756;2023-04-03T05:03:50;4.05;;;1.52;;
79025;SDS011;68425;44.716;37.756;2023-04-03T05:04:52;4.00;;;1.75;;
79025;SDS011;68425;44.716;37.756;2023-04-03T05:05:58;3.70;;;1.63;;
79025;SDS011;68425;44.716;37.756;2023-04-03T05:07:00;4.40;;;1.75;;
79025;SDS011;68425;44.716;37.756;2023-04-03T05:08:04;3.90;;;1.83;;
79025;SDS011;68425;44.716;37.756;2023-04-03T05:09:06;3.40;;;1.77;;
79025;SDS011;68425;44.716;37.756;2023-04-03T05:10:08;5.28;;;1.70;;
79025;SDS011;68425;44.716;37.756;2023-04-03T05:11:10;4.20;;;1.52;;
79025;SDS011;68425;44.716;37.756;2023-04-03T05:12:13;3.90;;;1.70;;
79025;SDS011;68425;44.716;37.756;2023-04-03T05:13:21;3.28;;;1.33;;
79025;SDS011;68425;44.716;37.756;2023-04-03T05:14:23;4.07;;;1.83;;
79025;SDS011;68425;44.716;37.756;2023-04-03T05:15:25;4.95;;;2.20;;
79025;SDS011;68425;44.716;37.756;2023-04-03T05:16:27;5.95;;;2.05;;
79025;SDS011;68425;44.716;37.756;2023-04-03T05:17:29;4.05;;;1.75;;
79025;SDS011;68425;44.716;37.756;2023-04-03T05:18:31;4.05;;;1.60;;
79025;SDS011;68425;44.716;37.756;2023-04-03T05:19:36;5.45;;;1.80;;
79025;SDS011;68425;44.716;37.756;2023-04-03T05:20:39;2.88;;;1.50;;
79025;SDS011;68425;44.716;37.756;2023-04-03T05:21:41;4.15;;;1.63;;
79025;SDS011;68425;44.716;37.756;2023-04-03T05:22:47;3.63;;;1.70;;
79025;SDS011;68425;44.716;37.756;2023-04-03T05:23:49;4.45;;;2.00;;
79025;SDS011;68425;44.716;37.756;2023-04-03T05:24:50;3.78;;;1.52;;
79025;SDS011;68425;44.716;37.756;2023-04-03T05:25:53;3.75;;;1.50;;
79025;SDS011;68425;44.716;37.756;2023-04-03T05:26:55;3.40;;;1.40;;
79025;SDS011;68425;44.716;37.756;2023-04-03T05:27:57;2.88;;;1.48;;
79025;SDS011;68425;44.716;37.756;2023-04-03T05:28:59;2.83;;;1.45;;
79025;SDS011;68425;44.716;37.756;2023-04-03T05:30:00;4.20;;;1.85;;
79025;SDS011;68425;44.716;37.756;2023-04-03T05:31:03;3.17;;;1.33;;
79025;SDS011;68425;44.716;37.756;2023-04-03T05:32:09;3.08;;;1.58;;
79025;SDS011;68425;44.716;37.756;2023-04-03T05:33:11;4.07;;;1.95;;
79025;SDS011;68425;44.716;37.756;2023-04-03T05:34:22;4.10;;;1.70;;
79025;SDS011;68425;44.716;37.756;2023-04-03T05:35:26;2.83;;;1.50;;
79025;SDS011;68425;44.716;37.756;2023-04-03T05:36:31;4.82;;;1.98;;
79025;SDS011;68425;44.716;37.756;2023-04-03T05:37:37;3.70;;;1.58;;
79025;SDS011;68425;44.716;37.756;2023-04-03T05:38:39;4.53;;;1.65;;
79025;SDS011;68425;44.716;37.756;2023-04-03T05:39:41;3.53;;;1.48;;
79025;SDS011;68425;44.716;37.756;2023-04-03T05:40:44;3.33;;;1.55;;
79025;SDS011;68425;44.716;37.756;2023-04-03T05:41:45;3.97;;;1.42;;
79025;SDS011;68425;44.716;37.756;2023-04-03T05:42:47;4.80;;;1.50;;
79025;SDS011;68425;44.716;37.756;2023-04-03T05:43:49;4.00;;;1.60;;
79025;SDS011;68425;44.716;37.756;2023-04-03T05:44:51;2.97;;;1.63;;
79025;SDS011;68425;44.716;37.756;2023-04-03T05:45:53;4.07;;;1.75;;
79025;SDS011;68425;44.716;37.756;2023-04-03T05:46:56;3.42;;;1.38;;
79025;SDS011;68425;44.716;37.756;2023-04-03T05:47:57;3.60;;;1.55;;
79025;SDS011;68425;44.716;37.756;2023-04-03T05:48:59;3.08;;;1.50;;
79025;SDS011;68425;44.716;37.756;2023-04-03T05:50:04;3.53;;;1.50;;
79025;SDS011;68425;44.716;37.756;2023-04-03T05:51:09;3.17;;;1.55;;
79025;SDS011;68425;44.716;37.756;2023-04-03T05:53:31;4.63;;;1.77;;
79025;SDS011;68425;44.716;37.756;2023-04-03T05:54:37;3.45;;;1.73;;
79025;SDS011;68425;44.716;37.756;2023-04-03T05:55:52;3.22;;;1.40;;
79025;SDS011;68425;44.716;37.756;2023-04-03T05:56:55;3.55;;;1.40;;
79025;SDS011;68425;44.716;37.756;2023-04-03T05:57:57;3.40;;;1.40;;
79025;SDS011;68425;44.716;37.756;2023-04-03T05:58:58;3.20;;;1.63;;
79025;SDS011;68425;44.716;37.756;2023-04-03T06:00:00;3.40;;;1.52;;
79025;SDS011;68425;44.716;37.756;2023-04-03T06:01:02;2.83;;;1.35;;
79025;SDS011;68425;44.716;37.756;2023-04-03T06:02:04;2.92;;;1.52;;
79025;SDS011;68425;44.716;37.756;2023-04-03T06:03:05;2.88;;;1.38;;
79025;SDS011;68425;44.716;37.756;2023-04-03T06:04:07;3.00;;;1.38;;
79025;SDS011;68425;44.716;37.756;2023-04-03T06:05:09;3.28;;;1.55;;
79025;SDS011;68425;44.716;37.756;2023-04-03T06:06:13;2.65;;;1.30;;
79025;SDS011;68425;44.716;37.756;2023-04-03T06:07:22;4.85;;;1.60;;
79025;SDS011;68425;44.716;37.756;2023-04-03T06:08:27;3.50;;;1.30;;
79025;SDS011;68425;44.716;37.756;2023-04-03T06:09:29;3.30;;;1.60;;
79025;SDS011;68425;44.716;37.756;2023-04-03T06:10:31;2.97;;;1.50;;
79025;SDS011;68425;44.716;37.756;2023-04-03T06:11:32;2.88;;;1.40;;
79025;SDS011;68425;44.716;37.756;2023-04-03T06:12:33;2.63;;;1.17;;
79025;SDS011;68425;44.716;37.756;2023-04-03T06:13:35;2.63;;;1.40;;
79025;SDS011;68425;44.716;37.756;2023-04-03T06:14:36;3.38;;;1.70;;
79025;SDS011;68425;44.716;37.756;2023-04-03T06:15:38;4.32;;;1.63;;
79025;SDS011;68425;44.716;37.756;2023-04-03T06:16:43;3.30;;;1.20;;
79025;SDS011;68425;44.716;37.756;2023-04-03T06:17:45;2.85;;;1.30;;
79025;SDS011;68425;44.716;37.756;2023-04-03T06:18:47;3.13;;;1.40;;
79025;SDS011;68425;44.716;37.756;2023-04-03T06:19:48;3.30;;;1.75;;
79025;SDS011;68425;44.716;37.756;2023-04-03T06:20:50;3.13;;;1.50;;
79025;SDS011;68425;44.716;37.756;2023-04-03T06:21:52;2.97;;;1.90;;
79025;SDS011;68425;44.716;37.756;2023-04-03T06:22:53;2.90;;;1.25;;
79025;SDS011;68425;44.716;37.756;2023-04-03T06:23:54;3.45;;;1.38;;